Time;durP1;ratioP1;P1;durP2;ratioP2;P2;SDS_P1;SDS_P2;PMS_P1;PMS_P2;Temp;Humidity;BMP_temperature;BMP_pressure;BME280_temperature;BME280_humidity;BME280_pressure;Samples;Min_cycle;Max_cycle;Signal;HPM_P1;HPM_P2
2023/01/01 00:00:17;;;;;;;12.53;9.10;;;20.20;54.10;;;;;;5090379;28;20228;-70
2023/01/01 00:02:44;;;;;;;8.90;7.27;;;20.20;54.00;;;;;;5091697;28;20212;-70
2023/01/01 00:05:11;;;;;;;11.07;8.30;;;20.20;54.00;;;;;;5090257;28;20231;-70
2023/01/01 00:07:38;;;;;;;9.83;7.57;;;20.20;54.10;;;;;;5091923;28;20243;-70
2023/01/01 00:12:50;;;;;;;12.90;10.57;;;20.20;54.10;;;;;;5091030;28;20191;-70
2023/01/01 00:15:18;;;;;;;9.07;7.50;;;20.20;54.10;;;;;;5091543;28;20310;-70
2023/01/01 00:17:46;;;;;;;10.37;7.87;;;20.20;53.90;;;;;;5091171;28;20201;-70
2023/01/01 00:20:13;;;;;;;12.53;10.60;;;20.30;54.10;;;;;;5090643;28;20315;-71
2023/01/01 00:22:40;;;;;;;10.03;8.63;;;20.30;53.90;;;;;;5090715;28;20200;-71
2023/01/01 00:25:08;;;;;;;11.17;8.33;;;20.30;53.90;;;;;;5090618;28;20232;-71
2023/01/01 00:27:35;;;;;;;10.57;8.53;;;20.30;54.00;;;;;;5090770;28;20212;-70
2023/01/01 00:30:03;;;;;;;9.83;8.83;;;20.30;54.00;;;;;;5090521;28;21025;-70
2023/01/01 00:32:31;;;;;;;9.63;8.27;;;20.30;53.90;;;;;;5094177;28;20199;-70
2023/01/01 00:34:58;;;;;;;8.70;7.90;;;20.30;53.90;;;;;;5094497;28;20205;-70
2023/01/01 00:37:25;;;;;;;10.40;9.27;;;20.30;53.90;;;;;;5094596;28;20287;-70
2023/01/01 00:39:52;;;;;;;11.57;9.20;;;20.20;53.80;;;;;;5095357;28;20630;-70
2023/01/01 00:42:19;;;;;;;10.63;8.97;;;20.10;53.80;;;;;;5094214;28;20684;-70
2023/01/01 00:44:47;;;;;;;11.53;10.33;;;20.20;54.60;;;;;;5094513;28;20232;-70
2023/01/01 00:47:14;;;;;;;17.53;12.27;;;20.20;54.10;;;;;;5094073;28;20324;-70
2023/01/01 00:49:42;;;;;;;11.47;9.73;;;20.30;54.00;;;;;;5095324;28;20643;-70
2023/01/01 00:52:09;;;;;;;12.27;10.17;;;20.30;53.90;;;;;;5093698;28;20538;-70
2023/01/01 00:54:36;;;;;;;12.50;9.70;;;20.10;53.70;;;;;;5094789;28;20204;-70
2023/01/01 00:57:03;;;;;;;13.13;10.07;;;20.20;53.80;;;;;;5093573;28;20205;-70
2023/01/01 00:59:30;;;;;;;13.60;10.13;;;20.30;53.90;;;;;;5094611;28;20297;-70
2023/01/01 01:01:57;;;;;;;12.80;10.80;;;20.20;53.80;;;;;;5093794;28;20232;-70
2023/01/01 01:04:24;;;;;;;12.73;10.73;;;20.20;53.80;;;;;;5058943;28;20284;-70
2023/01/01 01:06:52;;;;;;;13.43;11.10;;;20.20;53.90;;;;;;5094497;28;20478;-70
2023/01/01 01:09:19;;;;;;;14.13;11.90;;;20.10;53.80;;;;;;5092909;28;20938;-70
2023/01/01 01:11:46;;;;;;;15.10;12.50;;;20.10;53.80;;;;;;5093591;28;20200;-70
2023/01/01 01:14:14;;;;;;;14.17;11.00;;;20.10;53.90;;;;;;5093681;28;20660;-70
2023/01/01 01:16:41;;;;;;;15.27;13.37;;;20.10;53.90;;;;;;5094571;28;20291;-70
2023/01/01 01:19:12;;;;;;;13.47;10.90;;;20.00;54.00;;;;;;5094161;28;20627;-70
2023/01/01 01:21:39;;;;;;;14.87;12.03;;;19.90;54.00;;;;;;5094186;28;20447;-70
2023/01/01 01:24:09;;;;;;;13.93;11.33;;;19.90;54.10;;;;;;5054985;28;20653;-70
2023/01/01 01:26:36;;;;;;;12.83;11.57;;;19.80;54.20;;;;;;5093224;28;20489;-70
2023/01/01 01:29:04;;;;;;;15.43;12.97;;;19.80;54.30;;;;;;5092283;28;20300;-71
2023/01/01 01:31:33;;;;;;;15.03;12.13;;;19.70;54.40;;;;;;5092681;28;20454;-70
2023/01/01 01:34:00;;;;;;;12.67;10.63;;;19.70;54.50;;;;;;5092895;28;20656;-70
2023/01/01 01:36:28;;;;;;;14.17;11.93;;;19.60;54.50;;;;;;5094216;28;20248;-70
2023/01/01 01:38:59;;;;;;;12.70;11.40;;;19.50;54.60;;;;;;5093958;28;20853;-70
2023/01/01 01:41:27;;;;;;;13.43;11.07;;;19.50;54.70;;;;;;5093537;28;20439;-71
2023/01/01 01:43:57;;;;;;;12.20;10.97;;;19.40;54.80;;;;;;5089076;28;20208;-71
2023/01/01 01:46:32;;;;;;;16.03;12.60;;;19.30;54.90;;;;;;5093190;28;20478;-70
2023/01/01 01:49:03;;;;;;;14.03;12.10;;;19.30;55.00;;;;;;5093321;28;20457;-70
2023/01/01 01:51:34;;;;;;;14.63;12.80;;;19.10;55.10;;;;;;5090635;28;20921;-69
2023/01/01 01:54:05;;;;;;;13.23;11.87;;;19.00;55.30;;;;;;5093436;28;20907;-69
2023/01/01 01:56:41;;;;;;;13.57;11.17;;;19.00;55.40;;;;;;5093173;28;20471;-69
2023/01/01 01:59:09;;;;;;;13.87;12.47;;;19.00;56.00;;;;;;5092866;28;20466;-69
2023/01/01 02:01:36;;;;;;;14.00;12.50;;;19.00;55.60;;;;;;5093307;28;20546;-69
2023/01/01 02:04:03;;;;;;;12.63;11.27;;;19.00;55.60;;;;;;5092862;28;20446;-69
2023/01/01 02:06:32;;;;;;;9.70;8.70;;;19.00;55.70;;;;;;5085880;28;20466;-69
2023/01/01 02:09:02;;;;;;;10.07;8.47;;;19.00;55.70;;;;;;5072548;28;20526;-69
2023/01/01 02:11:30;;;;;;;10.97;8.83;;;18.90;55.70;;;;;;5073502;28;20788;-69
2023/01/01 02:14:00;;;;;;;11.97;10.23;;;18.80;55.80;;;;;;5073006;28;20542;-69
2023/01/01 02:16:36;;;;;;;10.73;8.93;;;18.70;55.80;;;;;;5092042;28;20451;-69
2023/01/01 02:19:12;;;;;;;11.10;9.00;;;18.60;56.00;;;;;;5092655;28;20478;-70
2023/01/01 02:21:51;;;;;;;9.37;8.37;;;18.60;56.40;;;;;;5092825;28;20442;-69
2023/01/01 02:27:17;;;;;;;9.47;6.93;;;18.40;56.30;;;;;;5088517;27;21128;-69
2023/01/01 02:29:48;;;;;;;7.53;6.13;;;18.60;56.50;;;;;;5088646;28;20446;-69
2023/01/01 02:32:19;;;;;;;7.03;4.57;;;18.60;56.40;;;;;;5067610;28;20444;-69
2023/01/01 02:34:51;;;;;;;6.47;4.73;;;18.60;57.00;;;;;;5068512;28;20444;-69
2023/01/01 02:37:19;;;;;;;4.27;3.80;;;18.70;56.40;;;;;;5068294;28;20440;-69
2023/01/01 02:39:51;;;;;;;4.80;4.37;;;18.70;56.40;;;;;;5068074;28;20444;-70
2023/01/01 02:42:19;;;;;;;4.40;3.97;;;18.70;56.30;;;;;;5067495;28;20448;-70
2023/01/01 02:44:53;;;;;;;5.03;3.80;;;18.80;56.40;;;;;;5068778;28;20531;-70
2023/01/01 02:47:20;;;;;;;3.87;3.43;;;18.80;56.50;;;;;;5067485;28;20442;-69
2023/01/01 02:49:58;;;;;;;4.07;3.07;;;18.80;56.50;;;;;;5052099;28;20447;-70
2023/01/01 02:52:42;;;;;;;3.37;2.90;;;18.80;56.50;;;;;;5059181;28;20450;-70
2023/01/01 02:55:21;;;;;;;3.97;3.10;;;18.80;56.50;;;;;;5076083;28;20463;-69
2023/01/01 02:57:53;;;;;;;3.70;3.03;;;18.90;56.60;;;;;;5068328;28;20428;-69
2023/01/01 03:00:27;;;;;;;4.10;2.93;;;18.90;56.40;;;;;;5067364;28;20769;-70
2023/01/01 03:03:15;;;;;;;4.73;3.10;;;19.00;56.30;;;;;;5068182;28;20443;-70
2023/01/01 03:08:44;;;;;;;5.07;2.93;;;19.00;56.10;;;;;;5087723;28;20492;-69
2023/01/01 03:11:15;;;;;;;4.27;2.90;;;19.00;55.90;;;;;;5087723;28;20437;-69
2023/01/01 03:13:48;;;;;;;3.87;2.90;;;19.00;55.90;;;;;;5076300;28;20440;-69
2023/01/01 03:16:21;;;;;;;3.40;3.10;;;19.00;55.80;;;;;;5067534;28;20424;-69
2023/01/01 03:19:09;;;;;;;5.13;3.00;;;19.10;55.60;;;;;;5067810;28;20435;-69
2023/01/01 03:21:38;;;;;;;4.00;3.03;;;19.10;55.60;;;;;;5067473;28;20263;-70
2023/01/01 03:24:07;;;;;;;5.27;2.80;;;19.10;55.40;;;;;;5066796;28;20460;-70
2023/01/01 03:26:36;;;;;;;4.23;2.70;;;19.10;55.40;;;;;;5067101;28;20498;-69
2023/01/01 03:29:09;;;;;;;3.20;2.90;;;19.10;55.40;;;;;;5066721;28;20962;-68
2023/01/01 03:31:43;;;;;;;3.97;2.83;;;19.10;55.20;;;;;;5067511;28;20472;-70
2023/01/01 03:34:14;;;;;;;4.50;2.67;;;19.10;55.00;;;;;;5066286;28;20447;-70
2023/01/01 03:36:46;;;;;;;5.43;2.70;;;19.20;54.90;;;;;;5044140;28;20429;-69
2023/01/01 03:39:17;;;;;;;3.73;3.03;;;19.20;54.80;;;;;;5033876;28;20856;-69
2023/01/01 03:41:49;;;;;;;3.87;2.53;;;19.20;54.80;;;;;;5033988;28;20437;-69
2023/01/01 03:44:21;;;;;;;3.20;2.60;;;19.20;54.50;;;;;;5049086;28;20247;-69
2023/01/01 03:46:50;;;;;;;4.20;2.47;;;19.20;54.70;;;;;;5054400;28;20554;-70
2023/01/01 03:49:18;;;;;;;4.83;2.60;;;19.20;54.50;;;;;;5053415;28;20451;-70
2023/01/01 03:52:00;;;;;;;4.57;2.83;;;19.20;54.30;;;;;;5053694;28;20876;-69
2023/01/01 03:54:37;;;;;;;2.63;2.03;;;19.20;54.20;;;;;;5053213;28;20448;-69
2023/01/01 03:57:10;;;;;;;2.63;2.10;;;19.20;54.10;;;;;;5053579;28;20463;-70
2023/01/01 03:59:44;;;;;;;3.13;2.30;;;19.20;53.90;;;;;;5054044;28;20428;-70
2023/01/01 04:02:16;;;;;;;2.83;2.17;;;19.20;53.80;;;;;;5053046;28;20444;-70
2023/01/01 04:04:45;;;;;;;4.07;2.30;;;19.20;53.60;;;;;;5053205;28;20449;-69
2023/01/01 04:07:12;;;;;;;2.93;2.00;;;19.20;53.50;;;;;;5052504;28;21091;-70
2023/01/01 04:09:42;;;;;;;3.03;2.00;;;19.20;53.40;;;;;;5053604;28;20210;-70
2023/01/01 04:12:10;;;;;;;2.20;2.00;;;19.30;53.20;;;;;;5053198;28;20201;-71
2023/01/01 04:14:39;;;;;;;2.37;1.77;;;19.30;53.10;;;;;;5053050;28;20452;-70
2023/01/01 04:17:07;;;;;;;2.37;2.00;;;19.30;53.00;;;;;;5053103;28;20202;-69
2023/01/01 04:19:36;;;;;;;1.93;1.83;;;19.30;52.80;;;;;;5053180;28;20201;-69
2023/01/01 04:22:03;;;;;;;3.47;1.90;;;19.30;52.80;;;;;;5052906;28;20198;-69
2023/01/01 04:24:30;;;;;;;2.10;1.90;;;19.30;52.80;;;;;;5052935;28;20960;-69
2023/01/01 04:26:57;;;;;;;3.57;1.70;;;19.40;52.80;;;;;;5052715;28;20500;-70
2023/01/01 04:29:24;;;;;;;2.67;1.80;;;19.40;52.50;;;;;;5052767;28;20448;-69
2023/01/01 04:31:51;;;;;;;3.00;1.77;;;19.40;52.30;;;;;;5052972;28;20194;-70
2023/01/01 04:34:20;;;;;;;2.60;1.47;;;19.40;52.30;;;;;;5052143;28;20460;-70
2023/01/01 04:36:48;;;;;;;2.63;2.00;;;19.40;52.40;;;;;;5052992;28;20502;-70
2023/01/01 04:39:17;;;;;;;3.37;1.97;;;19.40;52.30;;;;;;5052251;28;20535;-70
2023/01/01 04:41:46;;;;;;;3.07;1.90;;;19.40;52.20;;;;;;5053035;28;20213;-70
2023/01/01 04:44:13;;;;;;;1.63;1.53;;;19.40;52.20;;;;;;5052107;28;20459;-70
2023/01/01 04:46:41;;;;;;;2.67;1.60;;;19.40;52.30;;;;;;5053121;28;20476;-70
2023/01/01 04:49:08;;;;;;;2.57;2.10;;;19.50;52.20;;;;;;5051113;28;20512;-70
2023/01/01 04:51:35;;;;;;;2.80;1.97;;;19.40;52.10;;;;;;5052852;28;20571;-70
2023/01/01 04:54:03;;;;;;;1.60;1.40;;;19.50;52.20;;;;;;5052710;28;20205;-70
2023/01/01 04:56:30;;;;;;;2.43;1.63;;;19.50;52.10;;;;;;5052517;28;20205;-70
2023/01/01 04:58:57;;;;;;;4.93;1.90;;;19.40;51.90;;;;;;5052892;28;20205;-70
2023/01/01 05:01:26;;;;;;;3.07;1.70;;;19.40;52.10;;;;;;5051882;28;20456;-70
2023/01/01 05:03:53;;;;;;;2.30;1.67;;;19.40;52.10;;;;;;5052109;28;20470;-70
2023/01/01 05:06:21;;;;;;;2.27;1.90;;;19.50;52.10;;;;;;5051856;28;20484;-70
2023/01/01 05:08:49;;;;;;;1.90;1.70;;;19.40;51.90;;;;;;5051980;28;20204;-70
2023/01/01 05:11:19;;;;;;;2.87;1.57;;;19.40;52.10;;;;;;5052047;28;20202;-70
2023/01/01 05:13:49;;;;;;;2.17;1.67;;;19.40;52.00;;;;;;5052144;28;20209;-70
2023/01/01 05:16:17;;;;;;;2.47;1.80;;;19.40;52.10;;;;;;5061509;28;20467;-70
2023/01/01 05:18:44;;;;;;;2.40;1.87;;;19.40;52.00;;;;;;5051774;28;20948;-70
2023/01/01 05:21:13;;;;;;;3.20;1.80;;;19.40;52.10;;;;;;5051569;28;20790;-70
2023/01/01 05:23:40;;;;;;;2.43;1.73;;;19.40;52.00;;;;;;5051663;28;20228;-70
2023/01/01 05:26:11;;;;;;;3.23;1.90;;;19.40;52.00;;;;;;5051803;28;20495;-70
2023/01/01 05:28:40;;;;;;;3.17;1.90;;;19.40;52.10;;;;;;5051875;28;20456;-70
2023/01/01 05:31:08;;;;;;;2.63;2.10;;;19.40;52.00;;;;;;5050832;28;20555;-70
2023/01/01 05:33:36;;;;;;;1.97;1.70;;;19.40;52.00;;;;;;5051646;28;20648;-70
2023/01/01 05:36:04;;;;;;;3.10;1.90;;;19.40;52.10;;;;;;5050783;28;20198;-70
2023/01/01 05:38:34;;;;;;;3.53;2.00;;;19.30;52.00;;;;;;5051425;28;20211;-70
2023/01/01 05:41:06;;;;;;;3.60;1.93;;;19.30;52.00;;;;;;5051878;28;20471;-70
2023/01/01 05:43:32;;;;;;;4.80;2.30;;;19.40;52.00;;;;;;5051323;28;20447;-70
2023/01/01 05:46:02;;;;;;;3.27;2.10;;;19.40;52.10;;;;;;5056044;28;20964;-70
2023/01/01 05:48:29;;;;;;;2.40;1.57;;;19.40;52.10;;;;;;5051247;28;20705;-70
2023/01/01 05:51:02;;;;;;;3.97;1.90;;;19.30;52.10;;;;;;5051577;28;20448;-70
2023/01/01 05:53:29;;;;;;;4.33;2.20;;;19.30;52.00;;;;;;5051219;28;20190;-70
2023/01/01 05:55:56;;;;;;;2.63;1.90;;;19.30;52.10;;;;;;5051295;28;20206;-70
2023/01/01 05:58:23;;;;;;;2.90;2.10;;;19.30;52.10;;;;;;5050969;28;20449;-70
2023/01/01 06:00:49;;;;;;;4.47;1.97;;;19.30;52.30;;;;;;5051334;28;20564;-70
2023/01/01 06:03:18;;;;;;;2.67;1.60;;;19.30;52.10;;;;;;5050782;28;20531;-69
2023/01/01 06:05:44;;;;;;;3.33;2.07;;;19.20;52.10;;;;;;5051469;28;20552;-70
2023/01/01 06:08:11;;;;;;;2.93;1.97;;;19.20;52.30;;;;;;5049938;28;21002;-70
2023/01/01 06:10:38;;;;;;;2.97;1.87;;;19.30;52.50;;;;;;5051439;28;20460;-70
2023/01/01 06:13:05;;;;;;;3.30;2.07;;;19.30;52.30;;;;;;5051590;28;20470;-70
2023/01/01 06:15:33;;;;;;;4.70;2.00;;;19.30;52.30;;;;;;5050212;28;20936;-70
2023/01/01 06:17:59;;;;;;;2.83;2.07;;;19.20;52.40;;;;;;5051010;28;20448;-70
2023/01/01 06:20:28;;;;;;;2.50;1.93;;;19.30;52.40;;;;;;5050534;28;20454;-69
2023/01/01 06:22:54;;;;;;;3.27;2.00;;;19.20;52.40;;;;;;5051201;28;20452;-70
2023/01/01 06:25:21;;;;;;;5.20;2.20;;;19.20;52.50;;;;;;5050100;28;20510;-70
2023/01/01 06:27:48;;;;;;;3.03;1.73;;;19.20;52.60;;;;;;5051191;28;20479;-70
2023/01/01 06:30:15;;;;;;;3.73;1.93;;;19.20;52.70;;;;;;5050611;28;20448;-70
2023/01/01 06:32:42;;;;;;;2.90;2.43;;;19.20;52.70;;;;;;5051041;28;20451;-70
2023/01/01 06:35:09;;;;;;;3.73;1.90;;;19.10;52.60;;;;;;5051323;28;20444;-70
2023/01/01 06:37:37;;;;;;;2.43;1.90;;;19.10;52.60;;;;;;5051274;28;20197;-70
2023/01/01 06:40:06;;;;;;;2.30;1.97;;;19.10;52.60;;;;;;5051219;28;20459;-69
2023/01/01 06:42:33;;;;;;;3.07;2.10;;;19.10;52.60;;;;;;5050441;28;20452;-70
2023/01/01 06:44:59;;;;;;;2.33;2.10;;;19.10;52.60;;;;;;5050946;28;20455;-70
2023/01/01 06:47:26;;;;;;;3.67;2.17;;;19.10;52.60;;;;;;5050317;28;20214;-70
2023/01/01 06:49:53;;;;;;;2.93;2.10;;;19.00;52.80;;;;;;5050887;28;20451;-70
2023/01/01 06:52:20;;;;;;;3.97;2.53;;;19.00;53.00;;;;;;5049964;28;20662;-70
2023/01/01 06:54:48;;;;;;;3.17;2.10;;;18.90;53.10;;;;;;5050728;28;20940;-70
2023/01/01 06:57:15;;;;;;;2.67;2.00;;;18.90;53.20;;;;;;5050310;28;20498;-70
2023/01/01 06:59:42;;;;;;;2.70;1.90;;;18.90;53.30;;;;;;5050915;28;20448;-70
2023/01/01 07:02:11;;;;;;;2.97;2.53;;;18.90;53.30;;;;;;5051044;28;20549;-70
2023/01/01 07:04:38;;;;;;;3.60;2.37;;;18.90;53.30;;;;;;5050905;28;20444;-70
2023/01/01 07:07:05;;;;;;;3.80;2.67;;;18.90;53.30;;;;;;5050982;28;20487;-70
2023/01/01 07:09:32;;;;;;;3.53;2.70;;;18.80;53.40;;;;;;5050419;28;20559;-70
2023/01/01 07:12:00;;;;;;;3.17;2.37;;;18.80;53.40;;;;;;5038159;28;20539;-69
2023/01/01 07:14:27;;;;;;;2.80;2.30;;;18.80;53.60;;;;;;5053968;28;20441;-70
2023/01/01 07:16:54;;;;;;;6.03;2.70;;;18.80;53.50;;;;;;5054888;28;20448;-70
2023/01/01 07:19:21;;;;;;;3.10;2.27;;;18.70;53.60;;;;;;5053703;28;20853;-70
2023/01/01 07:21:52;;;;;;;3.07;2.10;;;18.60;53.70;;;;;;5054662;28;20531;-70
2023/01/01 07:24:20;;;;;;;3.53;2.90;;;18.50;53.90;;;;;;5053684;28;20444;-70
2023/01/01 07:26:47;;;;;;;4.83;2.97;;;18.50;54.20;;;;;;5053052;28;20583;-69
2023/01/01 07:29:16;;;;;;;5.27;2.60;;;18.40;54.20;;;;;;5054200;28;20460;-70
2023/01/01 07:31:44;;;;;;;2.43;2.10;;;18.40;54.30;;;;;;5056815;28;20456;-70
2023/01/01 07:34:14;;;;;;;2.33;2.10;;;18.40;54.30;;;;;;5053831;28;20519;-69
2023/01/01 07:36:41;;;;;;;2.13;1.90;;;18.40;54.60;;;;;;5034571;28;20433;-70
2023/01/01 07:39:09;;;;;;;3.53;2.30;;;18.30;54.70;;;;;;5034158;28;20540;-69
2023/01/01 07:41:36;;;;;;;5.00;2.53;;;18.30;54.80;;;;;;5033548;28;20456;-70
2023/01/01 07:44:02;;;;;;;3.17;2.13;;;18.30;54.80;;;;;;5049666;28;20952;-70
2023/01/01 07:46:31;;;;;;;3.70;2.50;;;18.40;54.80;;;;;;5052980;28;20540;-69
2023/01/01 07:48:57;;;;;;;4.03;2.20;;;18.40;54.80;;;;;;5053884;28;20455;-69
2023/01/01 07:51:24;;;;;;;4.07;2.40;;;18.40;54.80;;;;;;5053824;28;20452;-69
2023/01/01 07:53:51;;;;;;;4.13;2.53;;;18.40;54.80;;;;;;5053986;28;20494;-70
2023/01/01 07:56:18;;;;;;;3.50;2.23;;;18.40;54.80;;;;;;5053099;28;20811;-70
2023/01/01 07:58:45;;;;;;;4.20;2.33;;;18.40;55.00;;;;;;5053946;28;20444;-70
2023/01/01 08:01:13;;;;;;;3.03;1.90;;;18.40;55.00;;;;;;5055419;28;20552;-69
2023/01/01 08:03:41;;;;;;;3.77;2.20;;;18.50;55.00;;;;;;5052679;28;20448;-69
2023/01/01 08:06:10;;;;;;;3.87;2.27;;;18.50;54.90;;;;;;5053778;28;20543;-69
2023/01/01 08:08:37;;;;;;;4.27;2.40;;;18.50;55.00;;;;;;5053054;28;20488;-69
2023/01/01 08:11:04;;;;;;;2.90;2.20;;;18.60;54.90;;;;;;5053606;28;20457;-70
2023/01/01 08:13:31;;;;;;;3.90;2.10;;;18.60;54.80;;;;;;5052708;28;20456;-69
2023/01/01 08:15:58;;;;;;;4.33;2.10;;;18.70;55.00;;;;;;5052694;28;20455;-69
2023/01/01 08:18:25;;;;;;;5.87;2.73;;;18.70;55.00;;;;;;5052727;28;20452;-69
2023/01/01 08:20:56;;;;;;;6.23;2.50;;;18.70;55.00;;;;;;5053540;28;20448;-69
2023/01/01 08:23:23;;;;;;;4.03;2.60;;;18.70;55.50;;;;;;5052634;28;20448;-70
2023/01/01 08:25:49;;;;;;;5.83;2.87;;;18.80;55.10;;;;;;5052707;28;20889;-69
2023/01/01 08:28:16;;;;;;;5.57;2.70;;;18.70;55.00;;;;;;5052994;28;20515;-69
2023/01/01 08:30:43;;;;;;;3.77;2.43;;;18.80;55.20;;;;;;5053266;28;20452;-69
2023/01/01 08:33:10;;;;;;;4.10;2.90;;;18.80;55.20;;;;;;5053339;28;20543;-69
2023/01/01 08:35:40;;;;;;;4.83;3.03;;;18.80;55.20;;;;;;5052256;28;20531;-70
2023/01/01 08:38:10;;;;;;;3.10;2.60;;;18.80;55.20;;;;;;5053415;28;20819;-69
2023/01/01 08:40:37;;;;;;;3.13;2.43;;;18.90;55.20;;;;;;5052533;28;20467;-70
2023/01/01 08:43:04;;;;;;;4.10;2.70;;;18.90;55.20;;;;;;5052599;28;20448;-68
2023/01/01 08:45:31;;;;;;;5.30;2.70;;;19.00;55.10;;;;;;5052632;28;20206;-70
2023/01/01 08:47:58;;;;;;;2.87;2.50;;;19.10;55.00;;;;;;5052688;28;20228;-69
2023/01/01 08:50:26;;;;;;;4.97;2.30;;;19.10;54.90;;;;;;5032258;28;20718;-70
2023/01/01 08:52:52;;;;;;;3.37;2.13;;;19.10;54.70;;;;;;5039340;28;20452;-69
2023/01/01 08:55:21;;;;;;;3.07;2.00;;;19.10;54.70;;;;;;5052324;28;20455;-70
2023/01/01 08:57:48;;;;;;;3.67;2.30;;;19.10;54.70;;;;;;5052695;28;20864;-69
2023/01/01 09:00:15;;;;;;;3.23;2.33;;;19.20;54.70;;;;;;5052778;28;20448;-70
2023/01/01 09:02:42;;;;;;;3.83;2.57;;;19.20;54.80;;;;;;5049257;28;20236;-70
2023/01/01 09:05:09;;;;;;;6.07;2.50;;;19.20;54.80;;;;;;5052908;28;20510;-70
2023/01/01 09:07:36;;;;;;;4.03;2.40;;;19.30;55.50;;;;;;5065866;28;20232;-70
2023/01/01 09:10:04;;;;;;;3.77;2.60;;;19.40;54.80;;;;;;5069081;28;20519;-70
2023/01/01 09:12:32;;;;;;;4.80;2.63;;;19.40;54.60;;;;;;5066594;28;20512;-70
2023/01/01 09:14:59;;;;;;;3.80;2.60;;;19.50;54.50;;;;;;5067330;28;20475;-70
2023/01/01 09:17:26;;;;;;;6.13;2.80;;;19.60;54.40;;;;;;5066504;28;20202;-70
2023/01/01 09:19:53;;;;;;;4.10;2.60;;;19.60;54.30;;;;;;5067674;28;20266;-71
2023/01/01 09:22:20;;;;;;;4.77;2.80;;;19.80;54.50;;;;;;5066469;28;20445;-71
2023/01/01 09:24:46;;;;;;;3.10;2.37;;;19.80;54.10;;;;;;5067224;28;20267;-71
2023/01/01 09:27:13;;;;;;;3.03;2.40;;;19.90;54.10;;;;;;5066186;28;20636;-71
2023/01/01 09:29:42;;;;;;;3.20;2.33;;;19.90;54.00;;;;;;5055356;28;20206;-70
2023/01/01 09:32:08;;;;;;;5.47;2.30;;;20.10;54.10;;;;;;5052458;28;20630;-70
2023/01/01 09:34:35;;;;;;;3.13;2.60;;;20.20;53.50;;;;;;5050817;28;20201;-71
2023/01/01 09:37:02;;;;;;;4.37;2.60;;;20.30;53.60;;;;;;5051467;28;20206;-71
2023/01/01 09:39:29;;;;;;;4.60;2.00;;;20.30;53.40;;;;;;5051165;28;20248;-70
2023/01/01 09:42:17;;;;;;;3.83;2.57;;;20.40;53.40;;;;;;5051910;28;20456;-70
2023/01/01 09:45:14;;;;;;;3.03;2.30;;;20.50;53.50;;;;;;5051497;28;20549;-71
2023/01/01 09:47:46;;;;;;;3.80;2.80;;;20.60;52.70;;;;;;5030052;28;21108;-70
2023/01/01 09:50:16;;;;;;;7.03;2.40;;;20.70;52.60;;;;;;5043412;28;20221;-71
2023/01/01 09:52:50;;;;;;;4.37;2.43;;;20.70;52.80;;;;;;5050859;28;20229;-70
2023/01/01 09:55:25;;;;;;;4.10;3.00;;;20.70;52.10;;;;;;5051703;28;20238;-71
2023/01/01 09:57:52;;;;;;;12.40;3.20;;;20.70;51.70;;;;;;5051548;28;20216;-71
2023/01/01 10:00:20;;;;;;;3.13;2.20;;;20.50;51.70;;;;;;5051629;28;20209;-70
2023/01/01 10:03:07;;;;;;;4.57;2.50;;;20.50;52.00;;;;;;5051155;28;20209;-70
2023/01/01 10:05:43;;;;;;;5.27;2.30;;;20.50;51.70;;;;;;5051325;28;20204;-71
2023/01/01 10:08:21;;;;;;;3.80;2.60;;;20.40;51.80;;;;;;5035760;28;20216;-71
2023/01/01 10:10:57;;;;;;;3.37;2.57;;;20.50;52.20;;;;;;5051755;28;20334;-70
2023/01/01 10:13:31;;;;;;;3.60;2.43;;;20.60;52.10;;;;;;5050780;28;20724;-71
2023/01/01 10:16:01;;;;;;;4.03;2.47;;;20.80;51.90;;;;;;5051641;28;20284;-71
2023/01/01 10:18:35;;;;;;;4.70;2.80;;;21.00;51.40;;;;;;5050971;28;20190;-71
2023/01/01 10:21:08;;;;;;;2.83;2.37;;;21.00;51.20;;;;;;5051557;28;20645;-71
2023/01/01 10:23:40;;;;;;;3.13;2.40;;;21.10;51.80;;;;;;5050431;28;20198;-71
2023/01/01 10:26:13;;;;;;;4.47;2.47;;;20.90;51.20;;;;;;5050923;28;20238;-71
2023/01/01 10:28:44;;;;;;;5.07;2.60;;;20.90;51.00;;;;;;5050805;28;20309;-71
2023/01/01 10:31:17;;;;;;;3.30;2.30;;;21.00;51.00;;;;;;5051681;28;20197;-71
2023/01/01 10:33:47;;;;;;;4.83;2.50;;;21.10;51.10;;;;;;5050773;28;20612;-71
2023/01/01 10:36:19;;;;;;;3.57;2.17;;;21.20;51.00;;;;;;5051110;28;20201;-71
2023/01/01 10:38:46;;;;;;;4.27;2.33;;;21.40;50.70;;;;;;5050321;28;20190;-71
2023/01/01 10:41:14;;;;;;;4.20;2.30;;;21.50;50.60;;;;;;5050903;28;20300;-71
2023/01/01 10:43:42;;;;;;;2.93;2.10;;;21.70;50.50;;;;;;5050944;28;20614;-71
2023/01/01 10:46:13;;;;;;;4.50;2.40;;;21.80;50.20;;;;;;5051297;28;20660;-71
2023/01/01 10:48:41;;;;;;;2.63;2.27;;;21.80;50.00;;;;;;5054066;28;20210;-71
2023/01/01 10:51:19;;;;;;;3.57;2.47;;;21.90;50.20;;;;;;5054849;28;20296;-71
2023/01/01 10:53:51;;;;;;;2.97;2.30;;;22.00;49.80;;;;;;5054087;28;20204;-71
2023/01/01 10:56:19;;;;;;;3.57;2.40;;;22.10;49.40;;;;;;5054630;28;20198;-71
2023/01/01 10:58:48;;;;;;;3.50;2.27;;;22.20;49.50;;;;;;5054536;28;20275;-71
2023/01/01 11:01:21;;;;;;;3.90;2.77;;;22.30;49.30;;;;;;5055241;28;20210;-71
2023/01/01 11:03:57;;;;;;;4.63;2.40;;;22.20;48.70;;;;;;5054432;28;20193;-71
2023/01/01 11:06:28;;;;;;;3.23;2.40;;;22.20;48.50;;;;;;5054682;28;20701;-71
2023/01/01 11:08:57;;;;;;;4.53;2.37;;;22.10;48.80;;;;;;5054689;28;20216;-71
2023/01/01 11:11:28;;;;;;;9.67;2.77;;;21.80;47.90;;;;;;5054397;28;20248;-71
2023/01/01 11:13:58;;;;;;;3.93;2.10;;;21.60;48.30;;;;;;5054683;28;20258;-71
2023/01/01 11:16:26;;;;;;;4.87;2.60;;;21.40;49.00;;;;;;5054502;28;20622;-71
2023/01/01 11:19:02;;;;;;;3.93;2.30;;;21.40;48.80;;;;;;5054338;28;20754;-71
2023/01/01 11:21:30;;;;;;;5.77;2.50;;;21.40;48.40;;;;;;5053832;28;20654;-71
2023/01/01 11:24:18;;;;;;;4.27;2.20;;;21.40;48.60;;;;;;5054334;28;20313;-71
2023/01/01 11:26:46;;;;;;;5.60;2.60;;;21.50;48.30;;;;;;5053333;28;20570;-71
2023/01/01 11:29:23;;;;;;;3.77;2.30;;;21.80;48.40;;;;;;5054571;28;20222;-71
2023/01/01 11:31:51;;;;;;;3.70;2.60;;;21.90;47.80;;;;;;5053897;28;20189;-71
2023/01/01 11:34:37;;;;;;;5.90;2.73;;;22.20;47.90;;;;;;5054362;28;20206;-71
2023/01/01 11:37:26;;;;;;;4.17;2.47;;;22.40;46.80;;;;;;5054123;28;20226;-71
2023/01/01 11:39:55;;;;;;;4.53;2.40;;;22.40;46.20;;;;;;5053680;28;20187;-71
2023/01/01 11:42:24;;;;;;;5.00;2.40;;;22.50;46.40;;;;;;5054445;28;20574;-71
2023/01/01 11:44:54;;;;;;;5.77;2.33;;;22.70;46.40;;;;;;5053794;28;20300;-71
2023/01/01 11:47:26;;;;;;;4.60;2.20;;;23.00;46.20;;;;;;5054037;28;20628;-71
2023/01/01 11:50:00;;;;;;;3.87;2.40;;;23.20;45.30;;;;;;5053616;28;20751;-71
2023/01/01 11:52:35;;;;;;;4.90;2.37;;;23.10;44.40;;;;;;5054184;28;20565;-71
2023/01/01 11:55:11;;;;;;;6.00;2.40;;;23.30;45.00;;;;;;5053303;28;20204;-71
2023/01/01 11:57:41;;;;;;;4.63;2.30;;;23.50;44.20;;;;;;5052854;28;20192;-71
2023/01/01 12:00:15;;;;;;;4.97;2.23;;;23.70;44.10;;;;;;5054263;28;20558;-71
2023/01/01 12:02:51;;;;;;;4.77;2.30;;;23.80;43.50;;;;;;5053189;28;20198;-71
2023/01/01 12:05:22;;;;;;;3.90;1.83;;;23.70;42.70;;;;;;5054105;28;20275;-71
2023/01/01 12:07:51;;;;;;;4.27;2.40;;;23.70;43.40;;;;;;5017989;28;20365;-71
2023/01/01 12:10:22;;;;;;;3.90;2.07;;;23.80;43.50;;;;;;5054026;28;20224;-71
2023/01/01 12:12:53;;;;;;;6.43;2.23;;;24.00;42.60;;;;;;5052573;28;20205;-71
2023/01/01 12:15:26;;;;;;;5.70;2.13;;;24.20;42.10;;;;;;5053474;28;20232;-71
2023/01/01 12:18:01;;;;;;;3.80;2.20;;;24.40;41.70;;;;;;5052520;28;20194;-71
2023/01/01 12:20:32;;;;;;;5.63;2.50;;;24.40;41.20;;;;;;5053079;28;20193;-71
2023/01/01 12:23:02;;;;;;;6.23;2.30;;;24.80;41.40;;;;;;5033647;28;20194;-71
2023/01/01 12:25:36;;;;;;;4.13;2.10;;;25.10;40.10;;;;;;5040660;28;20233;-70
2023/01/01 12:28:15;;;;;;;4.10;2.97;;;25.30;39.80;;;;;;5053467;28;20252;-70
2023/01/01 12:30:49;;;;;;;6.73;2.40;;;25.70;39.20;;;;;;5052947;28;20217;-71
2023/01/01 12:33:32;;;;;;;6.73;2.33;;;26.10;39.00;;;;;;5053356;28;20189;-71
2023/01/01 12:36:10;;;;;;;4.67;2.50;;;26.60;38.00;;;;;;5053620;28;20212;-71
2023/01/01 12:39:02;;;;;;;5.67;2.30;;;27.00;37.30;;;;;;5051931;28;20619;-69
2023/01/01 12:41:36;;;;;;;5.23;2.47;;;26.90;37.40;;;;;;5052592;28;20281;-69
2023/01/01 12:44:16;;;;;;;4.97;2.10;;;27.00;37.70;;;;;;5053335;28;20277;-68
2023/01/01 12:46:50;;;;;;;5.33;2.40;;;26.70;37.50;;;;;;5052357;28;20277;-68
2023/01/01 12:49:34;;;;;;;5.40;2.30;;;27.10;37.50;;;;;;5052932;28;20301;-69
2023/01/01 12:52:14;;;;;;;6.13;2.53;;;27.30;37.00;;;;;;5052781;28;20754;-69
2023/01/01 12:55:22;;;;;;;4.93;2.00;;;27.20;36.90;;;;;;5052030;28;20202;-69
2023/01/01 12:57:56;;;;;;;4.30;2.50;;;27.50;36.00;;;;;;5052085;28;20195;-69
2023/01/01 13:00:23;;;;;;;6.57;2.57;;;28.00;36.50;;;;;;5040244;28;20196;-71
2023/01/01 13:02:54;;;;;;;4.23;2.40;;;28.20;36.30;;;;;;5051645;28;20212;-71
2023/01/01 13:05:25;;;;;;;4.43;2.43;;;28.00;36.40;;;;;;5052915;28;20188;-72